createdAt,value
2022-12-08T00:00:42.015Z,3.7
2022-12-08T00:14:49.824Z,3.6
2022-12-08T00:28:54.642Z,3.4
2022-12-08T00:43:01.078Z,3.4
2022-12-08T00:57:09.907Z,3.4
2022-12-08T01:11:14.157Z,3.2
2022-12-08T01:25:16.307Z,3.1
2022-12-08T01:39:20.469Z,2.8
2022-12-08T01:53:27.987Z,2.6
2022-12-08T02:07:30.886Z,2.5
2022-12-08T02:21:34.135Z,2.4
2022-12-08T02:35:38.827Z,2.6
2022-12-08T02:49:50.118Z,2.6
2022-12-08T03:03:55.909Z,2.6
2022-12-08T03:18:02.808Z,2.4
2022-12-08T03:32:11.273Z,2.2
2022-12-08T03:46:17.876Z,2.1
2022-12-08T04:00:22.139Z,2.3
2022-12-08T04:14:25.353Z,2.3
2022-12-08T04:28:34.276Z,2.3
2022-12-08T04:42:44.725Z,2.2
2022-12-08T04:56:52.660Z,2.1
2022-12-08T05:10:57.852Z,2
2022-12-08T05:25:05.868Z,1.8
2022-12-08T05:39:13.325Z,1.9
2022-12-08T05:53:17.896Z,1.9
2022-12-08T06:07:24.529Z,1.8
2022-12-08T06:21:32.249Z,1.7
2022-12-08T06:35:33.280Z,1.6
2022-12-08T06:49:37.763Z,1.4
2022-12-08T07:03:44.077Z,1.5
2022-12-08T07:17:54.933Z,1.5
2022-12-08T07:31:57.592Z,1.8
2022-12-08T07:46:02.297Z,2
2022-12-08T08:00:10.482Z,2.2
2022-12-08T08:14:17.054Z,2.4
2022-12-08T08:28:23.086Z,2.4
2022-12-08T08:42:27.070Z,2.6
2022-12-08T08:56:31.402Z,2.8
2022-12-08T09:10:35.803Z,2.8
2022-12-08T09:24:45.365Z,3
2022-12-08T09:38:50.492Z,3.2
2022-12-08T09:52:59.131Z,3.5
2022-12-08T10:07:07.728Z,4.1
2022-12-08T10:21:15.946Z,4.4
2022-12-08T10:35:25.404Z,5.1
2022-12-08T10:49:30.553Z,5.9
2022-12-08T11:03:33.215Z,4.2
2022-12-08T11:17:38.105Z,3.8
2022-12-08T11:31:46.244Z,4.3
2022-12-08T11:45:59.967Z,8.1
2022-12-08T12:00:11.279Z,8.1
2022-12-08T12:14:15.749Z,6.6
2022-12-08T12:28:22.033Z,6.2
2022-12-08T12:42:31.045Z,7.8
2022-12-08T12:56:44.642Z,5.7
2022-12-08T13:11:01.778Z,6.7
2022-12-08T14:22:59.965Z,5.8
2022-12-08T14:37:05.713Z,4.9
2022-12-08T14:51:10.803Z,4.3
2022-12-08T15:05:16.878Z,4.1
2022-12-08T15:19:25.804Z,3.8
2022-12-08T15:33:32.442Z,3.7
2022-12-08T15:47:37.225Z,3.6
2022-12-08T16:01:45.823Z,3.5
2022-12-08T16:15:55.417Z,3.3
2022-12-08T16:29:53.652Z,3.1
2022-12-08T16:43:58.620Z,3
2022-12-08T16:58:10.207Z,2.8
2022-12-08T17:12:17.569Z,2.6
2022-12-08T17:26:25.985Z,2.5
2022-12-08T17:40:30.755Z,2.4
2022-12-08T17:54:44.955Z,2.1
2022-12-08T18:08:52.431Z,1.4
2022-12-08T18:22:55.256Z,1.2
2022-12-08T18:37:00.427Z,0.7
2022-12-08T18:51:05.538Z,0.4
2022-12-08T19:05:08.453Z,0.3
2022-12-08T19:19:12.925Z,0.2
2022-12-08T19:33:19.886Z,0.1
2022-12-08T19:47:28.885Z,-0.2
2022-12-08T20:01:33.749Z,-0.1
2022-12-08T20:15:39.506Z,0
2022-12-08T20:29:41.748Z,0.1
2022-12-08T20:43:46.537Z,0
2022-12-08T20:57:50.651Z,-0.2
2022-12-08T21:11:59.544Z,0
2022-12-08T21:26:05.405Z,0.3
2022-12-08T21:40:13.652Z,0.5
2022-12-08T21:54:21.505Z,0.3
2022-12-08T22:08:27.155Z,-0.1
2022-12-08T22:22:31.748Z,-0.3
2022-12-08T22:36:39.399Z,-0.4
2022-12-08T22:50:42.397Z,-0.6
2022-12-08T23:04:49.825Z,-0.3
2022-12-08T23:18:57.795Z,-0.2
2022-12-08T23:33:01.944Z,-0.1
2022-12-08T23:47:11.069Z,-0.1
